sensor_id;sensor_type;location;lat;lon;timestamp;P1;durP1;ratioP1;P2;durP2;ratioP2
5465;SDS011;2755;50.728;7.108;2023-08-24T00:00:22;197.57;;;165.93;;
5465;SDS011;2755;50.728;7.108;2023-08-24T00:02:48;203.60;;;173.83;;
5465;SDS011;2755;50.728;7.108;2023-08-24T00:05:14;218.20;;;194.50;;
5465;SDS011;2755;50.728;7.108;2023-08-24T00:07:40;216.90;;;193.20;;
5465;SDS011;2755;50.728;7.108;2023-08-24T00:10:06;214.47;;;190.80;;
5465;SDS011;2755;50.728;7.108;2023-08-24T00:12:32;218.03;;;194.13;;
5465;SDS011;2755;50.728;7.108;2023-08-24T00:15:00;216.67;;;192.80;;
5465;SDS011;2755;50.728;7.108;2023-08-24T00:17:27;226.57;;;202.17;;
5465;SDS011;2755;50.728;7.108;2023-08-24T00:19:54;224.00;;;199.83;;
5465;SDS011;2755;50.728;7.108;2023-08-24T00:22:20;217.97;;;194.30;;
5465;SDS011;2755;50.728;7.108;2023-08-24T00:24:46;224.67;;;200.40;;
5465;SDS011;2755;50.728;7.108;2023-08-24T00:27:12;222.60;;;198.50;;
5465;SDS011;2755;50.728;7.108;2023-08-24T00:29:38;219.00;;;195.03;;
5465;SDS011;2755;50.728;7.108;2023-08-24T00:32:05;220.97;;;196.83;;
5465;SDS011;2755;50.728;7.108;2023-08-24T00:34:31;230.43;;;205.97;;
5465;SDS011;2755;50.728;7.108;2023-08-24T00:36:57;226.37;;;202.00;;
5465;SDS011;2755;50.728;7.108;2023-08-24T00:39:23;230.87;;;206.27;;
5465;SDS011;2755;50.728;7.108;2023-08-24T00:41:49;231.93;;;207.33;;
5465;SDS011;2755;50.728;7.108;2023-08-24T00:44:15;232.90;;;208.20;;
5465;SDS011;2755;50.728;7.108;2023-08-24T00:46:42;231.23;;;206.57;;
5465;SDS011;2755;50.728;7.108;2023-08-24T00:49:08;247.13;;;221.77;;
5465;SDS011;2755;50.728;7.108;2023-08-24T00:51:34;262.90;;;236.70;;
5465;SDS011;2755;50.728;7.108;2023-08-24T00:54:00;276.23;;;249.13;;
5465;SDS011;2755;50.728;7.108;2023-08-24T00:56:26;280.63;;;253.37;;
5465;SDS011;2755;50.728;7.108;2023-08-24T00:58:54;279.47;;;252.27;;
5465;SDS011;2755;50.728;7.108;2023-08-24T01:01:21;283.73;;;255.97;;
5465;SDS011;2755;50.728;7.108;2023-08-24T01:03:47;275.87;;;248.77;;
5465;SDS011;2755;50.728;7.108;2023-08-24T01:06:13;277.83;;;250.70;;
5465;SDS011;2755;50.728;7.108;2023-08-24T01:08:39;282.33;;;254.93;;
5465;SDS011;2755;50.728;7.108;2023-08-24T01:11:17;272.27;;;245.47;;
5465;SDS011;2755;50.728;7.108;2023-08-24T01:16:34;269.97;;;243.10;;
5465;SDS011;2755;50.728;7.108;2023-08-24T01:19:05;265.80;;;239.10;;
5465;SDS011;2755;50.728;7.108;2023-08-24T01:21:32;260.23;;;234.17;;
5465;SDS011;2755;50.728;7.108;2023-08-24T01:24:09;261.23;;;234.97;;
5465;SDS011;2755;50.728;7.108;2023-08-24T01:26:36;260.57;;;234.43;;
5465;SDS011;2755;50.728;7.108;2023-08-24T01:29:03;270.67;;;243.97;;
5465;SDS011;2755;50.728;7.108;2023-08-24T01:31:30;275.97;;;248.97;;
5465;SDS011;2755;50.728;7.108;2023-08-24T01:33:56;250.60;;;225.00;;
5465;SDS011;2755;50.728;7.108;2023-08-24T01:36:22;262.67;;;236.33;;
5465;SDS011;2755;50.728;7.108;2023-08-24T01:39:04;250.57;;;225.07;;
5465;SDS011;2755;50.728;7.108;2023-08-24T01:41:36;252.87;;;227.17;;
5465;SDS011;2755;50.728;7.108;2023-08-24T01:44:04;254.50;;;228.80;;
5465;SDS011;2755;50.728;7.108;2023-08-24T01:46:33;243.47;;;218.30;;
5465;SDS011;2755;50.728;7.108;2023-08-24T01:49:01;244.00;;;218.77;;
5465;SDS011;2755;50.728;7.108;2023-08-24T01:51:28;225.97;;;201.67;;
5465;SDS011;2755;50.728;7.108;2023-08-24T01:53:54;229.70;;;205.20;;
5465;SDS011;2755;50.728;7.108;2023-08-24T01:56:22;227.30;;;202.90;;
5465;SDS011;2755;50.728;7.108;2023-08-24T01:58:49;219.90;;;195.90;;
5465;SDS011;2755;50.728;7.108;2023-08-24T02:01:15;234.67;;;209.87;;
5465;SDS011;2755;50.728;7.108;2023-08-24T02:03:41;237.10;;;212.17;;
5465;SDS011;2755;50.728;7.108;2023-08-24T02:06:07;237.60;;;212.53;;
5465;SDS011;2755;50.728;7.108;2023-08-24T02:08:33;225.17;;;200.93;;
5465;SDS011;2755;50.728;7.108;2023-08-24T02:10:59;239.70;;;214.83;;
5465;SDS011;2755;50.728;7.108;2023-08-24T02:13:25;245.77;;;220.30;;
5465;SDS011;2755;50.728;7.108;2023-08-24T02:16:00;251.23;;;225.83;;
5465;SDS011;2755;50.728;7.108;2023-08-24T02:18:29;255.00;;;229.33;;
5465;SDS011;2755;50.728;7.108;2023-08-24T02:20:56;255.87;;;230.27;;
5465;SDS011;2755;50.728;7.108;2023-08-24T02:23:22;260.17;;;234.40;;
5465;SDS011;2755;50.728;7.108;2023-08-24T02:25:47;237.03;;;212.50;;
5465;SDS011;2755;50.728;7.108;2023-08-24T02:28:13;232.63;;;208.20;;
5465;SDS011;2755;50.728;7.108;2023-08-24T02:30:39;229.27;;;204.97;;
5465;SDS011;2755;50.728;7.108;2023-08-24T02:33:05;217.90;;;194.23;;
5465;SDS011;2755;50.728;7.108;2023-08-24T02:35:32;209.47;;;185.43;;
5465;SDS011;2755;50.728;7.108;2023-08-24T02:37:58;205.97;;;179.17;;
5465;SDS011;2755;50.728;7.108;2023-08-24T02:40:24;205.53;;;176.93;;
5465;SDS011;2755;50.728;7.108;2023-08-24T02:42:50;200.77;;;165.57;;
5465;SDS011;2755;50.728;7.108;2023-08-24T02:45:16;199.20;;;164.00;;
5465;SDS011;2755;50.728;7.108;2023-08-24T02:47:42;202.87;;;169.03;;
5465;SDS011;2755;50.728;7.108;2023-08-24T02:50:08;199.00;;;159.00;;
5465;SDS011;2755;50.728;7.108;2023-08-24T02:52:34;202.10;;;165.30;;
5465;SDS011;2755;50.728;7.108;2023-08-24T02:55:01;205.50;;;173.63;;
5465;SDS011;2755;50.728;7.108;2023-08-24T02:57:27;204.13;;;172.53;;
5465;SDS011;2755;50.728;7.108;2023-08-24T02:59:53;201.87;;;163.23;;
5465;SDS011;2755;50.728;7.108;2023-08-24T03:02:19;199.83;;;163.90;;
5465;SDS011;2755;50.728;7.108;2023-08-24T03:04:45;202.37;;;167.30;;
5465;SDS011;2755;50.728;7.108;2023-08-24T03:07:11;201.37;;;167.63;;
5465;SDS011;2755;50.728;7.108;2023-08-24T03:09:37;204.47;;;173.47;;
5465;SDS011;2755;50.728;7.108;2023-08-24T03:12:03;205.77;;;172.57;;
5465;SDS011;2755;50.728;7.108;2023-08-24T03:14:29;208.13;;;177.73;;
5465;SDS011;2755;50.728;7.108;2023-08-24T03:16:55;201.60;;;169.87;;
5465;SDS011;2755;50.728;7.108;2023-08-24T03:19:21;201.47;;;166.43;;
5465;SDS011;2755;50.728;7.108;2023-08-24T03:21:47;206.00;;;173.87;;
5465;SDS011;2755;50.728;7.108;2023-08-24T03:24:13;208.67;;;179.30;;
5465;SDS011;2755;50.728;7.108;2023-08-24T03:26:39;209.17;;;177.83;;
5465;SDS011;2755;50.728;7.108;2023-08-24T03:29:05;212.23;;;186.40;;
5465;SDS011;2755;50.728;7.108;2023-08-24T03:31:32;214.83;;;188.23;;
5465;SDS011;2755;50.728;7.108;2023-08-24T03:33:58;213.10;;;188.67;;
5465;SDS011;2755;50.728;7.108;2023-08-24T03:36:24;216.77;;;192.83;;
5465;SDS011;2755;50.728;7.108;2023-08-24T03:38:50;214.20;;;189.70;;
5465;SDS011;2755;50.728;7.108;2023-08-24T03:41:15;216.63;;;191.67;;
5465;SDS011;2755;50.728;7.108;2023-08-24T03:43:41;214.10;;;189.13;;
5465;SDS011;2755;50.728;7.108;2023-08-24T03:46:08;208.73;;;177.20;;
5465;SDS011;2755;50.728;7.108;2023-08-24T03:48:34;215.37;;;188.97;;
5465;SDS011;2755;50.728;7.108;2023-08-24T03:50:59;210.93;;;182.27;;
5465;SDS011;2755;50.728;7.108;2023-08-24T03:53:26;217.63;;;191.30;;
5465;SDS011;2755;50.728;7.108;2023-08-24T03:55:52;214.37;;;186.47;;
5465;SDS011;2755;50.728;7.108;2023-08-24T03:58:18;213.43;;;186.30;;
5465;SDS011;2755;50.728;7.108;2023-08-24T04:00:44;210.67;;;181.13;;
5465;SDS011;2755;50.728;7.108;2023-08-24T04:03:10;215.07;;;189.43;;
5465;SDS011;2755;50.728;7.108;2023-08-24T04:05:36;214.87;;;187.43;;
5465;SDS011;2755;50.728;7.108;2023-08-24T04:08:02;214.50;;;189.90;;
5465;SDS011;2755;50.728;7.108;2023-08-24T04:10:29;212.83;;;185.53;;
5465;SDS011;2755;50.728;7.108;2023-08-24T04:12:55;212.77;;;184.23;;
5465;SDS011;2755;50.728;7.108;2023-08-24T04:15:21;208.23;;;178.57;;
5465;SDS011;2755;50.728;7.108;2023-08-24T04:17:47;214.97;;;188.73;;
5465;SDS011;2755;50.728;7.108;2023-08-24T04:20:14;207.93;;;174.40;;
5465;SDS011;2755;50.728;7.108;2023-08-24T04:22:40;211.50;;;180.20;;
5465;SDS011;2755;50.728;7.108;2023-08-24T04:25:06;213.13;;;180.30;;
5465;SDS011;2755;50.728;7.108;2023-08-24T04:27:33;208.23;;;173.70;;
5465;SDS011;2755;50.728;7.108;2023-08-24T04:29:59;210.33;;;179.80;;
5465;SDS011;2755;50.728;7.108;2023-08-24T04:32:25;208.47;;;169.83;;
5465;SDS011;2755;50.728;7.108;2023-08-24T04:34:51;210.77;;;176.60;;
5465;SDS011;2755;50.728;7.108;2023-08-24T04:37:17;207.23;;;170.27;;
5465;SDS011;2755;50.728;7.108;2023-08-24T04:39:43;211.10;;;174.57;;
5465;SDS011;2755;50.728;7.108;2023-08-24T04:42:09;209.23;;;175.17;;
5465;SDS011;2755;50.728;7.108;2023-08-24T04:44:35;208.47;;;171.63;;
5465;SDS011;2755;50.728;7.108;2023-08-24T04:47:01;209.50;;;171.53;;
5465;SDS011;2755;50.728;7.108;2023-08-24T04:49:27;207.47;;;173.67;;
5465;SDS011;2755;50.728;7.108;2023-08-24T04:51:54;210.60;;;177.50;;
5465;SDS011;2755;50.728;7.108;2023-08-24T04:54:20;208.37;;;173.37;;
5465;SDS011;2755;50.728;7.108;2023-08-24T04:56:46;203.50;;;167.13;;
5465;SDS011;2755;50.728;7.108;2023-08-24T04:59:12;200.13;;;162.10;;
5465;SDS011;2755;50.728;7.108;2023-08-24T05:01:39;195.87;;;158.13;;
5465;SDS011;2755;50.728;7.108;2023-08-24T05:04:05;191.60;;;147.53;;
5465;SDS011;2755;50.728;7.108;2023-08-24T05:06:31;193.47;;;150.07;;
5465;SDS011;2755;50.728;7.108;2023-08-24T05:08:57;196.77;;;152.83;;
5465;SDS011;2755;50.728;7.108;2023-08-24T05:11:23;203.83;;;169.27;;
5465;SDS011;2755;50.728;7.108;2023-08-24T05:13:51;213.30;;;180.57;;
5465;SDS011;2755;50.728;7.108;2023-08-24T05:16:17;212.10;;;181.23;;
5465;SDS011;2755;50.728;7.108;2023-08-24T05:18:43;207.87;;;174.87;;
5465;SDS011;2755;50.728;7.108;2023-08-24T05:21:09;212.33;;;188.93;;
5465;SDS011;2755;50.728;7.108;2023-08-24T05:23:35;211.00;;;186.10;;
5465;SDS011;2755;50.728;7.108;2023-08-24T05:26:02;212.57;;;189.20;;
5465;SDS011;2755;50.728;7.108;2023-08-24T05:28:28;210.13;;;185.17;;
5465;SDS011;2755;50.728;7.108;2023-08-24T05:30:55;213.87;;;190.33;;
5465;SDS011;2755;50.728;7.108;2023-08-24T05:33:22;202.03;;;169.93;;
5465;SDS011;2755;50.728;7.108;2023-08-24T05:35:48;194.03;;;153.47;;
5465;SDS011;2755;50.728;7.108;2023-08-24T05:38:15;187.93;;;146.23;;
5465;SDS011;2755;50.728;7.108;2023-08-24T05:40:46;194.80;;;160.67;;
5465;SDS011;2755;50.728;7.108;2023-08-24T05:43:12;196.43;;;163.53;;
5465;SDS011;2755;50.728;7.108;2023-08-24T05:45:39;198.90;;;168.20;;
5465;SDS011;2755;50.728;7.108;2023-08-24T05:48:06;198.60;;;169.53;;
5465;SDS011;2755;50.728;7.108;2023-08-24T05:50:32;203.67;;;181.13;;
5465;SDS011;2755;50.728;7.108;2023-08-24T05:52:58;219.43;;;195.90;;
5465;SDS011;2755;50.728;7.108;2023-08-24T05:55:24;229.30;;;205.50;;
5465;SDS011;2755;50.728;7.108;2023-08-24T05:57:50;227.07;;;203.20;;
5465;SDS011;2755;50.728;7.108;2023-08-24T06:00:16;231.77;;;207.80;;
5465;SDS011;2755;50.728;7.108;2023-08-24T06:02:42;230.53;;;206.57;;
5465;SDS011;2755;50.728;7.108;2023-08-24T06:05:08;234.60;;;210.50;;
5465;SDS011;2755;50.728;7.108;2023-08-24T06:07:35;228.30;;;204.60;;
5465;SDS011;2755;50.728;7.108;2023-08-24T06:10:01;231.40;;;207.43;;
5465;SDS011;2755;50.728;7.108;2023-08-24T06:12:27;223.27;;;199.77;;
5465;SDS011;2755;50.728;7.108;2023-08-24T06:14:53;215.00;;;191.80;;
5465;SDS011;2755;50.728;7.108;2023-08-24T06:17:18;220.97;;;197.47;;
5465;SDS011;2755;50.728;7.108;2023-08-24T06:19:44;214.00;;;190.93;;
5465;SDS011;2755;50.728;7.108;2023-08-24T06:22:10;208.70;;;185.97;;
5465;SDS011;2755;50.728;7.108;2023-08-24T06:24:36;203.13;;;179.67;;
5465;SDS011;2755;50.728;7.108;2023-08-24T06:27:02;196.97;;;168.47;;
5465;SDS011;2755;50.728;7.108;2023-08-24T06:29:28;197.67;;;165.90;;
5465;SDS011;2755;50.728;7.108;2023-08-24T06:31:54;199.30;;;170.20;;
5465;SDS011;2755;50.728;7.108;2023-08-24T06:34:20;199.27;;;168.70;;
5465;SDS011;2755;50.728;7.108;2023-08-24T06:36:46;192.60;;;157.03;;
5465;SDS011;2755;50.728;7.108;2023-08-24T06:39:13;196.03;;;164.40;;
5465;SDS011;2755;50.728;7.108;2023-08-24T06:41:39;194.43;;;158.43;;
5465;SDS011;2755;50.728;7.108;2023-08-24T06:44:05;193.60;;;156.47;;
5465;SDS011;2755;50.728;7.108;2023-08-24T06:46:31;203.23;;;173.80;;
5465;SDS011;2755;50.728;7.108;2023-08-24T06:48:57;207.33;;;180.03;;
5465;SDS011;2755;50.728;7.108;2023-08-24T06:51:24;205.83;;;176.83;;
5465;SDS011;2755;50.728;7.108;2023-08-24T06:53:50;195.47;;;161.03;;
5465;SDS011;2755;50.728;7.108;2023-08-24T06:56:16;204.60;;;181.07;;
5465;SDS011;2755;50.728;7.108;2023-08-24T06:58:45;223.50;;;199.43;;
5465;SDS011;2755;50.728;7.108;2023-08-24T07:01:11;257.70;;;231.27;;
5465;SDS011;2755;50.728;7.108;2023-08-24T07:03:37;265.27;;;237.87;;
5465;SDS011;2755;50.728;7.108;2023-08-24T07:06:05;220.80;;;193.50;;
5465;SDS011;2755;50.728;7.108;2023-08-24T07:08:34;201.57;;;176.63;;
5465;SDS011;2755;50.728;7.108;2023-08-24T07:11:00;218.20;;;194.60;;
5465;SDS011;2755;50.728;7.108;2023-08-24T07:13:27;206.73;;;178.30;;
5465;SDS011;2755;50.728;7.108;2023-08-24T07:15:53;198.03;;;158.57;;
5465;SDS011;2755;50.728;7.108;2023-08-24T07:18:20;194.67;;;154.40;;
5465;SDS011;2755;50.728;7.108;2023-08-24T07:20:46;209.37;;;186.47;;
5465;SDS011;2755;50.728;7.108;2023-08-24T07:23:12;216.90;;;193.30;;
5465;SDS011;2755;50.728;7.108;2023-08-24T07:25:38;190.57;;;155.37;;
5465;SDS011;2755;50.728;7.108;2023-08-24T07:28:04;185.17;;;144.53;;
5465;SDS011;2755;50.728;7.108;2023-08-24T07:30:30;200.07;;;167.10;;
5465;SDS011;2755;50.728;7.108;2023-08-24T07:32:56;211.83;;;186.93;;
5465;SDS011;2755;50.728;7.108;2023-08-24T07:35:22;198.97;;;163.20;;
5465;SDS011;2755;50.728;7.108;2023-08-24T07:37:52;198.57;;;164.00;;
5465;SDS011;2755;50.728;7.108;2023-08-24T07:40:18;206.57;;;177.63;;
5465;SDS011;2755;50.728;7.108;2023-08-24T07:42:48;209.43;;;173.67;;
5465;SDS011;2755;50.728;7.108;2023-08-24T07:45:21;199.17;;;164.87;;
5465;SDS011;2755;50.728;7.108;2023-08-24T07:47:50;200.97;;;163.43;;
5465;SDS011;2755;50.728;7.108;2023-08-24T07:50:16;207.37;;;182.37;;
5465;SDS011;2755;50.728;7.108;2023-08-24T07:52:42;202.70;;;174.47;;
5465;SDS011;2755;50.728;7.108;2023-08-24T07:55:09;190.70;;;151.27;;
5465;SDS011;2755;50.728;7.108;2023-08-24T07:57:36;201.63;;;171.60;;
5465;SDS011;2755;50.728;7.108;2023-08-24T08:00:03;218.60;;;194.80;;
5465;SDS011;2755;50.728;7.108;2023-08-24T08:02:29;243.13;;;217.67;;
5465;SDS011;2755;50.728;7.108;2023-08-24T08:04:58;237.33;;;212.13;;
5465;SDS011;2755;50.728;7.108;2023-08-24T08:07:24;248.07;;;222.37;;
5465;SDS011;2755;50.728;7.108;2023-08-24T08:09:53;238.57;;;213.27;;
5465;SDS011;2755;50.728;7.108;2023-08-24T08:12:19;230.00;;;205.30;;
5465;SDS011;2755;50.728;7.108;2023-08-24T08:14:45;213.63;;;190.13;;
5465;SDS011;2755;50.728;7.108;2023-08-24T08:17:11;205.67;;;177.70;;
5465;SDS011;2755;50.728;7.108;2023-08-24T08:19:37;202.13;;;169.77;;
5465;SDS011;2755;50.728;7.108;2023-08-24T08:22:03;214.83;;;189.13;;
5465;SDS011;2755;50.728;7.108;2023-08-24T08:24:29;227.87;;;203.70;;
5465;SDS011;2755;50.728;7.108;2023-08-24T08:26:55;222.63;;;198.80;;
5465;SDS011;2755;50.728;7.108;2023-08-24T08:29:21;206.87;;;183.57;;
5465;SDS011;2755;50.728;7.108;2023-08-24T08:31:47;204.57;;;178.27;;
5465;SDS011;2755;50.728;7.108;2023-08-24T08:34:13;198.70;;;162.10;;
5465;SDS011;2755;50.728;7.108;2023-08-24T08:36:39;192.07;;;146.67;;
5465;SDS011;2755;50.728;7.108;2023-08-24T08:39:04;195.27;;;154.17;;
5465;SDS011;2755;50.728;7.108;2023-08-24T08:41:31;193.47;;;148.90;;
5465;SDS011;2755;50.728;7.108;2023-08-24T08:44:04;200.03;;;159.27;;
5465;SDS011;2755;50.728;7.108;2023-08-24T08:46:31;201.23;;;161.67;;
5465;SDS011;2755;50.728;7.108;2023-08-24T08:49:00;203.90;;;168.80;;
5465;SDS011;2755;50.728;7.108;2023-08-24T08:51:26;200.43;;;165.60;;
5465;SDS011;2755;50.728;7.108;2023-08-24T08:53:53;214.53;;;191.07;;
5465;SDS011;2755;50.728;7.108;2023-08-24T08:56:19;213.00;;;189.80;;
5465;SDS011;2755;50.728;7.108;2023-08-24T08:58:46;196.47;;;164.07;;
5465;SDS011;2755;50.728;7.108;2023-08-24T09:01:12;194.53;;;158.73;;
5465;SDS011;2755;50.728;7.108;2023-08-24T09:03:39;195.77;;;159.47;;
5465;SDS011;2755;50.728;7.108;2023-08-24T09:06:05;197.07;;;161.70;;
5465;SDS011;2755;50.728;7.108;2023-08-24T09:08:31;196.37;;;157.77;;
5465;SDS011;2755;50.728;7.108;2023-08-24T09:11:00;194.40;;;154.63;;
5465;SDS011;2755;50.728;7.108;2023-08-24T09:13:28;197.67;;;160.67;;
5465;SDS011;2755;50.728;7.108;2023-08-24T09:15:54;201.23;;;168.87;;
5465;SDS011;2755;50.728;7.108;2023-08-24T09:18:20;196.47;;;162.27;;
5465;SDS011;2755;50.728;7.108;2023-08-24T09:20:47;196.57;;;163.20;;
5465;SDS011;2755;50.728;7.108;2023-08-24T09:23:17;202.87;;;162.70;;
5465;SDS011;2755;50.728;7.108;2023-08-24T09:25:45;201.37;;;171.43;;
5465;SDS011;2755;50.728;7.108;2023-08-24T09:28:12;195.17;;;158.77;;
5465;SDS011;2755;50.728;7.108;2023-08-24T09:30:38;194.43;;;156.00;;
5465;SDS011;2755;50.728;7.108;2023-08-24T09:33:09;190.47;;;149.67;;
5465;SDS011;2755;50.728;7.108;2023-08-24T09:35:35;200.67;;;165.60;;
5465;SDS011;2755;50.728;7.108;2023-08-24T09:38:15;193.33;;;153.43;;
5465;SDS011;2755;50.728;7.108;2023-08-24T09:40:44;193.80;;;153.40;;
5465;SDS011;2755;50.728;7.108;2023-08-24T09:43:12;193.37;;;157.23;;
5465;SDS011;2755;50.728;7.108;2023-08-24T09:45:38;200.80;;;171.40;;
5465;SDS011;2755;50.728;7.108;2023-08-24T09:48:13;197.37;;;163.57;;
5465;SDS011;2755;50.728;7.108;2023-08-24T09:50:39;192.27;;;154.70;;
5465;SDS011;2755;50.728;7.108;2023-08-24T09:53:06;196.23;;;160.30;;
5465;SDS011;2755;50.728;7.108;2023-08-24T09:55:33;193.00;;;151.87;;
5465;SDS011;2755;50.728;7.108;2023-08-24T09:58:02;187.23;;;143.03;;
5465;SDS011;2755;50.728;7.108;2023-08-24T10:00:29;190.37;;;148.10;;
5465;SDS011;2755;50.728;7.108;2023-08-24T10:02:55;194.07;;;154.30;;
5465;SDS011;2755;50.728;7.108;2023-08-24T10:05:24;199.57;;;164.07;;
5465;SDS011;2755;50.728;7.108;2023-08-24T10:07:53;197.67;;;161.10;;
5465;SDS011;2755;50.728;7.108;2023-08-24T10:10:21;193.67;;;154.10;;
5465;SDS011;2755;50.728;7.108;2023-08-24T10:12:54;189.53;;;147.90;;
5465;SDS011;2755;50.728;7.108;2023-08-24T10:15:24;197.90;;;162.10;;
5465;SDS011;2755;50.728;7.108;2023-08-24T10:17:50;199.67;;;165.37;;
5465;SDS011;2755;50.728;7.108;2023-08-24T10:20:18;195.67;;;157.43;;
5465;SDS011;2755;50.728;7.108;2023-08-24T10:22:46;190.10;;;150.57;;
5465;SDS011;2755;50.728;7.108;2023-08-24T10:25:12;187.17;;;146.80;;
5465;SDS011;2755;50.728;7.108;2023-08-24T10:27:39;187.43;;;145.93;;
5465;SDS011;2755;50.728;7.108;2023-08-24T10:30:12;185.47;;;145.27;;
5465;SDS011;2755;50.728;7.108;2023-08-24T10:32:38;185.77;;;145.63;;
5465;SDS011;2755;50.728;7.108;2023-08-24T10:35:06;186.50;;;146.17;;
5465;SDS011;2755;50.728;7.108;2023-08-24T10:37:32;187.20;;;148.53;;
5465;SDS011;2755;50.728;7.108;2023-08-24T10:39:59;193.33;;;159.63;;
5465;SDS011;2755;50.728;7.108;2023-08-24T10:42:25;188.53;;;150.23;;
5465;SDS011;2755;50.728;7.108;2023-08-24T10:44:52;198.13;;;167.40;;
5465;SDS011;2755;50.728;7.108;2023-08-24T10:47:19;193.33;;;159.93;;
5465;SDS011;2755;50.728;7.108;2023-08-24T10:52:24;195.67;;;164.27;;
5465;SDS011;2755;50.728;7.108;2023-08-24T10:54:51;195.13;;;161.77;;
5465;SDS011;2755;50.728;7.108;2023-08-24T10:57:18;194.07;;;159.20;;
5465;SDS011;2755;50.728;7.108;2023-08-24T10:59:45;198.67;;;161.57;;
5465;SDS011;2755;50.728;7.108;2023-08-24T11:02:17;194.17;;;157.87;;
5465;SDS011;2755;50.728;7.108;2023-08-24T11:07:31;190.23;;;149.80;;
5465;SDS011;2755;50.728;7.108;2023-08-24T11:09:57;192.37;;;153.67;;
5465;SDS011;2755;50.728;7.108;2023-08-24T11:12:23;190.57;;;151.17;;
5465;SDS011;2755;50.728;7.108;2023-08-24T11:14:49;193.23;;;155.63;;
5465;SDS011;2755;50.728;7.108;2023-08-24T11:17:19;190.93;;;150.50;;
5465;SDS011;2755;50.728;7.108;2023-08-24T11:19:49;193.07;;;154.50;;
5465;SDS011;2755;50.728;7.108;2023-08-24T11:22:16;191.20;;;151.07;;
5465;SDS011;2755;50.728;7.108;2023-08-24T11:24:43;190.30;;;152.17;;
5465;SDS011;2755;50.728;7.108;2023-08-24T11:27:09;188.80;;;149.27;;
5465;SDS011;2755;50.728;7.108;2023-08-24T11:29:35;189.57;;;148.60;;
5465;SDS011;2755;50.728;7.108;2023-08-24T11:32:01;193.60;;;154.23;;
5465;SDS011;2755;50.728;7.108;2023-08-24T11:34:27;197.13;;;160.57;;
5465;SDS011;2755;50.728;7.108;2023-08-24T11:36:54;190.80;;;150.87;;
5465;SDS011;2755;50.728;7.108;2023-08-24T11:39:20;194.67;;;157.13;;
5465;SDS011;2755;50.728;7.108;2023-08-24T11:42:01;189.97;;;152.47;;
5465;SDS011;2755;50.728;7.108;2023-08-24T11:44:28;193.67;;;155.80;;
5465;SDS011;2755;50.728;7.108;2023-08-24T11:46:57;194.27;;;156.90;;
5465;SDS011;2755;50.728;7.108;2023-08-24T11:49:23;194.87;;;160.57;;
5465;SDS011;2755;50.728;7.108;2023-08-24T11:51:50;191.87;;;154.33;;
5465;SDS011;2755;50.728;7.108;2023-08-24T11:54:17;194.87;;;159.03;;
5465;SDS011;2755;50.728;7.108;2023-08-24T11:56:44;195.07;;;159.23;;
5465;SDS011;2755;50.728;7.108;2023-08-24T11:59:12;196.17;;;163.30;;
5465;SDS011;2755;50.728;7.108;2023-08-24T12:01:39;198.23;;;165.77;;
5465;SDS011;2755;50.728;7.108;2023-08-24T12:04:05;209.23;;;186.17;;
5465;SDS011;2755;50.728;7.108;2023-08-24T12:06:31;210.67;;;187.57;;
5465;SDS011;2755;50.728;7.108;2023-08-24T12:08:57;205.17;;;182.33;;
5465;SDS011;2755;50.728;7.108;2023-08-24T12:11:23;213.23;;;190.00;;
5465;SDS011;2755;50.728;7.108;2023-08-24T12:13:50;219.37;;;195.87;;
5465;SDS011;2755;50.728;7.108;2023-08-24T12:16:17;221.50;;;197.83;;
5465;SDS011;2755;50.728;7.108;2023-08-24T12:18:47;233.37;;;209.17;;
5465;SDS011;2755;50.728;7.108;2023-08-24T12:21:13;243.73;;;218.73;;
5465;SDS011;2755;50.728;7.108;2023-08-24T12:23:39;234.23;;;209.97;;
5465;SDS011;2755;50.728;7.108;2023-08-24T12:26:05;252.17;;;226.80;;
5465;SDS011;2755;50.728;7.108;2023-08-24T12:28:32;246.33;;;221.33;;
5465;SDS011;2755;50.728;7.108;2023-08-24T12:30:59;245.33;;;220.37;;
5465;SDS011;2755;50.728;7.108;2023-08-24T12:33:28;235.40;;;210.87;;
5465;SDS011;2755;50.728;7.108;2023-08-24T12:35:54;224.60;;;200.47;;
5465;SDS011;2755;50.728;7.108;2023-08-24T12:38:21;215.93;;;192.47;;
5465;SDS011;2755;50.728;7.108;2023-08-24T12:40:47;204.57;;;178.87;;
5465;SDS011;2755;50.728;7.108;2023-08-24T12:43:14;204.87;;;173.83;;
5465;SDS011;2755;50.728;7.108;2023-08-24T12:45:40;204.90;;;177.67;;
5465;SDS011;2755;50.728;7.108;2023-08-24T12:48:06;204.97;;;178.40;;
5465;SDS011;2755;50.728;7.108;2023-08-24T12:50:32;203.37;;;172.90;;
5465;SDS011;2755;50.728;7.108;2023-08-24T12:52:58;193.57;;;152.17;;
5465;SDS011;2755;50.728;7.108;2023-08-24T12:55:27;206.93;;;177.97;;
5465;SDS011;2755;50.728;7.108;2023-08-24T12:57:53;203.17;;;173.20;;
5465;SDS011;2755;50.728;7.108;2023-08-24T13:00:19;195.13;;;161.07;;
5465;SDS011;2755;50.728;7.108;2023-08-24T13:02:47;199.87;;;166.47;;
5465;SDS011;2755;50.728;7.108;2023-08-24T13:05:14;205.90;;;177.10;;
5465;SDS011;2755;50.728;7.108;2023-08-24T13:07:40;199.70;;;165.20;;
5465;SDS011;2755;50.728;7.108;2023-08-24T13:10:06;192.57;;;150.57;;
5465;SDS011;2755;50.728;7.108;2023-08-24T13:12:32;193.37;;;152.87;;
5465;SDS011;2755;50.728;7.108;2023-08-24T13:15:02;192.27;;;150.73;;
5465;SDS011;2755;50.728;7.108;2023-08-24T13:17:31;198.77;;;160.40;;
5465;SDS011;2755;50.728;7.108;2023-08-24T13:19:57;196.97;;;160.07;;
5465;SDS011;2755;50.728;7.108;2023-08-24T13:22:23;193.13;;;152.97;;
5465;SDS011;2755;50.728;7.108;2023-08-24T13:24:49;191.33;;;150.00;;
5465;SDS011;2755;50.728;7.108;2023-08-24T13:27:15;202.27;;;171.80;;
5465;SDS011;2755;50.728;7.108;2023-08-24T13:29:44;210.43;;;182.73;;
5465;SDS011;2755;50.728;7.108;2023-08-24T13:32:10;209.23;;;183.17;;
5465;SDS011;2755;50.728;7.108;2023-08-24T13:34:36;210.83;;;185.43;;
5465;SDS011;2755;50.728;7.108;2023-08-24T13:37:01;210.30;;;186.13;;
5465;SDS011;2755;50.728;7.108;2023-08-24T13:39:29;208.07;;;182.03;;
5465;SDS011;2755;50.728;7.108;2023-08-24T13:41:58;215.00;;;191.27;;
5465;SDS011;2755;50.728;7.108;2023-08-24T13:44:25;238.63;;;213.60;;
5465;SDS011;2755;50.728;7.108;2023-08-24T13:46:51;264.37;;;237.63;;
5465;SDS011;2755;50.728;7.108;2023-08-24T13:49:18;254.77;;;228.70;;
5465;SDS011;2755;50.728;7.108;2023-08-24T13:51:44;232.27;;;207.37;;
5465;SDS011;2755;50.728;7.108;2023-08-24T13:54:13;209.20;;;183.83;;
5465;SDS011;2755;50.728;7.108;2023-08-24T13:56:40;206.80;;;183.13;;
5465;SDS011;2755;50.728;7.108;2023-08-24T13:59:06;208.57;;;183.87;;
5465;SDS011;2755;50.728;7.108;2023-08-24T14:01:32;207.20;;;182.70;;
5465;SDS011;2755;50.728;7.108;2023-08-24T14:03:58;204.73;;;174.77;;
5465;SDS011;2755;50.728;7.108;2023-08-24T14:06:24;209.13;;;186.00;;
5465;SDS011;2755;50.728;7.108;2023-08-24T14:08:50;214.73;;;191.17;;
5465;SDS011;2755;50.728;7.108;2023-08-24T14:11:16;218.17;;;194.27;;
5465;SDS011;2755;50.728;7.108;2023-08-24T14:13:42;224.57;;;200.57;;
5465;SDS011;2755;50.728;7.108;2023-08-24T14:16:08;225.00;;;200.93;;
5465;SDS011;2755;50.728;7.108;2023-08-24T14:18:34;211.60;;;188.30;;
5465;SDS011;2755;50.728;7.108;2023-08-24T14:21:01;209.77;;;186.43;;
5465;SDS011;2755;50.728;7.108;2023-08-24T14:23:27;201.67;;;171.03;;
5465;SDS011;2755;50.728;7.108;2023-08-24T14:25:53;203.13;;;174.70;;